sensor_id;sensor_type;location;lat;lon;timestamp;temperature;humidity
73939;DHT22;62291;47.554;8.504;2022-07-21T00:01:47;20.60;99.90
73939;DHT22;62291;47.554;8.504;2022-07-21T00:04:13;20.60;99.90
73939;DHT22;62291;47.554;8.504;2022-07-21T00:06:41;20.50;99.90
73939;DHT22;62291;47.554;8.504;2022-07-21T00:09:07;20.60;99.90
73939;DHT22;62291;47.554;8.504;2022-07-21T00:11:32;20.60;99.90
73939;DHT22;62291;47.554;8.504;2022-07-21T00:13:58;20.60;99.90
73939;DHT22;62291;47.554;8.504;2022-07-21T00:16:24;20.60;99.90
73939;DHT22;62291;47.554;8.504;2022-07-21T00:18:49;20.70;99.90
73939;DHT22;62291;47.554;8.504;2022-07-21T00:21:15;20.70;99.90
73939;DHT22;62291;47.554;8.504;2022-07-21T00:23:41;20.70;99.90
73939;DHT22;62291;47.554;8.504;2022-07-21T00:26:06;20.80;99.90
73939;DHT22;62291;47.554;8.504;2022-07-21T00:28:32;20.80;99.90
73939;DHT22;62291;47.554;8.504;2022-07-21T00:30:58;20.60;99.90
73939;DHT22;62291;47.554;8.504;2022-07-21T00:33:23;20.60;99.90
73939;DHT22;62291;47.554;8.504;2022-07-21T00:35:49;20.60;99.90
73939;DHT22;62291;47.554;8.504;2022-07-21T00:38:15;20.50;99.90
73939;DHT22;62291;47.554;8.504;2022-07-21T00:40:40;20.50;99.90
73939;DHT22;62291;47.554;8.504;2022-07-21T00:43:06;20.50;99.90
73939;DHT22;62291;47.554;8.504;2022-07-21T00:45:32;20.50;99.90
73939;DHT22;62291;47.554;8.504;2022-07-21T00:47:58;20.40;99.90
73939;DHT22;62291;47.554;8.504;2022-07-21T00:50:24;20.40;99.90
73939;DHT22;62291;47.554;8.504;2022-07-21T00:52:50;20.50;99.90
73939;DHT22;62291;47.554;8.504;2022-07-21T00:55:18;20.50;99.90
73939;DHT22;62291;47.554;8.504;2022-07-21T00:57:45;20.40;99.90
73939;DHT22;62291;47.554;8.504;2022-07-21T01:00:18;20.40;99.90
73939;DHT22;62291;47.554;8.504;2022-07-21T01:02:44;20.30;99.90
73939;DHT22;62291;47.554;8.504;2022-07-21T01:05:12;20.30;99.90
73939;DHT22;62291;47.554;8.504;2022-07-21T01:07:48;20.30;99.90
73939;DHT22;62291;47.554;8.504;2022-07-21T01:10:15;20.40;99.90
73939;DHT22;62291;47.554;8.504;2022-07-21T01:12:42;20.40;99.90
73939;DHT22;62291;47.554;8.504;2022-07-21T01:15:09;20.40;99.90
73939;DHT22;62291;47.554;8.504;2022-07-21T01:17:36;20.40;99.90
73939;DHT22;62291;47.554;8.504;2022-07-21T01:20:04;20.40;99.90
73939;DHT22;62291;47.554;8.504;2022-07-21T01:22:32;20.30;99.90
73939;DHT22;62291;47.554;8.504;2022-07-21T01:24:58;20.40;99.90
73939;DHT22;62291;47.554;8.504;2022-07-21T01:27:26;20.30;99.90
73939;DHT22;62291;47.554;8.504;2022-07-21T01:29:53;20.30;99.90
73939;DHT22;62291;47.554;8.504;2022-07-21T01:32:19;20.40;99.90
73939;DHT22;62291;47.554;8.504;2022-07-21T01:34:44;20.40;99.90
73939;DHT22;62291;47.554;8.504;2022-07-21T01:37:10;20.30;99.90
73939;DHT22;62291;47.554;8.504;2022-07-21T01:39:36;20.30;99.90
73939;DHT22;62291;47.554;8.504;2022-07-21T01:42:20;20.30;99.90
73939;DHT22;62291;47.554;8.504;2022-07-21T01:44:47;20.30;99.90
73939;DHT22;62291;47.554;8.504;2022-07-21T01:47:13;20.20;99.90
73939;DHT22;62291;47.554;8.504;2022-07-21T01:49:38;20.20;99.90
73939;DHT22;62291;47.554;8.504;2022-07-21T01:52:04;20.20;99.90
73939;DHT22;62291;47.554;8.504;2022-07-21T01:54:30;20.20;99.90
73939;DHT22;62291;47.554;8.504;2022-07-21T01:56:56;20.00;99.90
73939;DHT22;62291;47.554;8.504;2022-07-21T01:59:21;20.00;99.90
73939;DHT22;62291;47.554;8.504;2022-07-21T02:01:47;20.00;99.90
73939;DHT22;62291;47.554;8.504;2022-07-21T02:04:13;19.90;99.90
73939;DHT22;62291;47.554;8.504;2022-07-21T02:06:38;19.90;99.90
73939;DHT22;62291;47.554;8.504;2022-07-21T02:09:04;19.80;99.90
73939;DHT22;62291;47.554;8.504;2022-07-21T02:11:32;19.70;99.90
73939;DHT22;62291;47.554;8.504;2022-07-21T02:13:58;19.70;99.90
73939;DHT22;62291;47.554;8.504;2022-07-21T02:16:24;19.70;99.90
73939;DHT22;62291;47.554;8.504;2022-07-21T02:18:49;19.70;99.90
73939;DHT22;62291;47.554;8.504;2022-07-21T02:21:15;19.70;99.90
73939;DHT22;62291;47.554;8.504;2022-07-21T02:23:41;19.70;99.90
73939;DHT22;62291;47.554;8.504;2022-07-21T02:26:07;19.60;99.90
73939;DHT22;62291;47.554;8.504;2022-07-21T02:28:32;19.60;99.90
73939;DHT22;62291;47.554;8.504;2022-07-21T02:30:58;19.60;99.90
73939;DHT22;62291;47.554;8.504;2022-07-21T02:33:24;19.60;99.90
73939;DHT22;62291;47.554;8.504;2022-07-21T02:35:50;19.60;99.90
73939;DHT22;62291;47.554;8.504;2022-07-21T02:38:15;19.60;99.90
73939;DHT22;62291;47.554;8.504;2022-07-21T02:40:41;19.60;99.90
73939;DHT22;62291;47.554;8.504;2022-07-21T02:43:07;19.60;99.90
73939;DHT22;62291;47.554;8.504;2022-07-21T02:45:34;19.60;99.90
73939;DHT22;62291;47.554;8.504;2022-07-21T02:48:00;19.60;99.90
73939;DHT22;62291;47.554;8.504;2022-07-21T02:50:29;19.60;99.90
73939;DHT22;62291;47.554;8.504;2022-07-21T02:53:00;19.60;99.90
73939;DHT22;62291;47.554;8.504;2022-07-21T02:55:27;19.60;99.90
73939;DHT22;62291;47.554;8.504;2022-07-21T02:58:26;19.60;99.90
73939;DHT22;62291;47.554;8.504;2022-07-21T03:01:01;19.60;99.90
73939;DHT22;62291;47.554;8.504;2022-07-21T03:03:30;19.50;99.90
73939;DHT22;62291;47.554;8.504;2022-07-21T03:05:56;19.40;99.90
73939;DHT22;62291;47.554;8.504;2022-07-21T03:08:23;19.40;99.90
73939;DHT22;62291;47.554;8.504;2022-07-21T03:10:49;19.40;99.90
73939;DHT22;62291;47.554;8.504;2022-07-21T03:13:15;19.40;99.90
73939;DHT22;62291;47.554;8.504;2022-07-21T03:15:41;19.40;99.90
73939;DHT22;62291;47.554;8.504;2022-07-21T03:18:07;19.30;99.90
73939;DHT22;62291;47.554;8.504;2022-07-21T03:20:35;19.30;99.90
73939;DHT22;62291;47.554;8.504;2022-07-21T03:23:01;19.40;99.90
73939;DHT22;62291;47.554;8.504;2022-07-21T03:25:28;19.50;99.90
73939;DHT22;62291;47.554;8.504;2022-07-21T03:27:53;19.60;99.90
73939;DHT22;62291;47.554;8.504;2022-07-21T03:30:20;19.60;99.90
73939;DHT22;62291;47.554;8.504;2022-07-21T03:32:47;19.70;99.90
73939;DHT22;62291;47.554;8.504;2022-07-21T03:35:13;19.80;99.90
73939;DHT22;62291;47.554;8.504;2022-07-21T03:37:41;19.80;99.90
73939;DHT22;62291;47.554;8.504;2022-07-21T03:40:07;19.90;99.90
73939;DHT22;62291;47.554;8.504;2022-07-21T03:42:33;19.90;99.90
73939;DHT22;62291;47.554;8.504;2022-07-21T03:44:59;20.00;99.90
73939;DHT22;62291;47.554;8.504;2022-07-21T03:47:24;20.10;99.90
73939;DHT22;62291;47.554;8.504;2022-07-21T03:49:50;20.10;99.90
73939;DHT22;62291;47.554;8.504;2022-07-21T03:52:15;20.10;99.90
73939;DHT22;62291;47.554;8.504;2022-07-21T03:54:41;20.20;99.90
73939;DHT22;62291;47.554;8.504;2022-07-21T03:57:07;20.20;99.90
73939;DHT22;62291;47.554;8.504;2022-07-21T03:59:32;20.20;99.90
73939;DHT22;62291;47.554;8.504;2022-07-21T04:01:58;20.20;99.90
73939;DHT22;62291;47.554;8.504;2022-07-21T04:04:24;20.30;99.90
73939;DHT22;62291;47.554;8.504;2022-07-21T04:06:49;20.20;99.90
73939;DHT22;62291;47.554;8.504;2022-07-21T04:09:15;20.30;99.90
73939;DHT22;62291;47.554;8.504;2022-07-21T04:11:43;20.30;99.90
73939;DHT22;62291;47.554;8.504;2022-07-21T04:14:08;20.30;99.90
73939;DHT22;62291;47.554;8.504;2022-07-21T04:16:34;20.20;99.90
73939;DHT22;62291;47.554;8.504;2022-07-21T04:18:59;20.20;99.90
73939;DHT22;62291;47.554;8.504;2022-07-21T04:21:25;20.20;99.90
73939;DHT22;62291;47.554;8.504;2022-07-21T04:23:51;20.20;99.90
73939;DHT22;62291;47.554;8.504;2022-07-21T04:26:16;20.20;99.90
73939;DHT22;62291;47.554;8.504;2022-07-21T04:28:42;20.20;99.90
73939;DHT22;62291;47.554;8.504;2022-07-21T04:31:08;20.20;99.90
73939;DHT22;62291;47.554;8.504;2022-07-21T04:33:33;20.20;99.90
73939;DHT22;62291;47.554;8.504;2022-07-21T04:36:00;20.30;99.90
73939;DHT22;62291;47.554;8.504;2022-07-21T04:38:26;20.30;99.90
73939;DHT22;62291;47.554;8.504;2022-07-21T04:40:52;20.30;99.90
73939;DHT22;62291;47.554;8.504;2022-07-21T04:43:17;20.30;99.90
73939;DHT22;62291;47.554;8.504;2022-07-21T04:45:43;20.30;99.90
73939;DHT22;62291;47.554;8.504;2022-07-21T04:48:08;20.40;99.90
73939;DHT22;62291;47.554;8.504;2022-07-21T04:50:34;20.50;99.90
73939;DHT22;62291;47.554;8.504;2022-07-21T04:53:00;20.50;99.90
73939;DHT22;62291;47.554;8.504;2022-07-21T04:55:25;20.60;99.90
73939;DHT22;62291;47.554;8.504;2022-07-21T04:57:52;20.70;99.90
73939;DHT22;62291;47.554;8.504;2022-07-21T05:00:24;20.70;99.90
73939;DHT22;62291;47.554;8.504;2022-07-21T05:02:50;20.80;99.90
73939;DHT22;62291;47.554;8.504;2022-07-21T05:05:16;20.90;99.90
73939;DHT22;62291;47.554;8.504;2022-07-21T05:07:42;21.20;99.90
73939;DHT22;62291;47.554;8.504;2022-07-21T05:10:11;21.40;99.90
73939;DHT22;62291;47.554;8.504;2022-07-21T05:12:38;21.90;99.90
73939;DHT22;62291;47.554;8.504;2022-07-21T05:15:08;22.50;99.90
73939;DHT22;62291;47.554;8.504;2022-07-21T05:17:38;23.10;99.90
73939;DHT22;62291;47.554;8.504;2022-07-21T05:20:05;23.30;99.90
73939;DHT22;62291;47.554;8.504;2022-07-21T05:22:31;23.60;99.90
73939;DHT22;62291;47.554;8.504;2022-07-21T05:24:56;23.70;99.90
73939;DHT22;62291;47.554;8.504;2022-07-21T05:27:22;23.60;99.90
73939;DHT22;62291;47.554;8.504;2022-07-21T05:29:48;23.60;99.90
73939;DHT22;62291;47.554;8.504;2022-07-21T05:32:13;23.50;99.90
73939;DHT22;62291;47.554;8.504;2022-07-21T05:34:40;23.60;99.90
73939;DHT22;62291;47.554;8.504;2022-07-21T05:37:05;23.40;99.90
73939;DHT22;62291;47.554;8.504;2022-07-21T05:39:31;23.40;99.90
73939;DHT22;62291;47.554;8.504;2022-07-21T05:41:57;23.50;99.90
73939;DHT22;62291;47.554;8.504;2022-07-21T05:44:22;23.90;99.90
73939;DHT22;62291;47.554;8.504;2022-07-21T05:46:48;24.00;99.90
73939;DHT22;62291;47.554;8.504;2022-07-21T05:49:13;24.20;99.90
73939;DHT22;62291;47.554;8.504;2022-07-21T05:51:39;24.80;99.90
73939;DHT22;62291;47.554;8.504;2022-07-21T05:54:05;25.50;99.90
73939;DHT22;62291;47.554;8.504;2022-07-21T05:56:30;25.90;99.90
73939;DHT22;62291;47.554;8.504;2022-07-21T05:58:56;26.50;99.90
73939;DHT22;62291;47.554;8.504;2022-07-21T06:01:22;27.10;99.90
73939;DHT22;62291;47.554;8.504;2022-07-21T06:03:49;27.30;99.90
73939;DHT22;62291;47.554;8.504;2022-07-21T06:06:16;27.60;99.90
73939;DHT22;62291;47.554;8.504;2022-07-21T06:08:44;27.20;99.90
73939;DHT22;62291;47.554;8.504;2022-07-21T06:11:13;27.00;99.90
73939;DHT22;62291;47.554;8.504;2022-07-21T06:13:39;26.50;99.60
73939;DHT22;62291;47.554;8.504;2022-07-21T06:16:06;26.40;99.90
73939;DHT22;62291;47.554;8.504;2022-07-21T06:18:32;26.60;99.90
73939;DHT22;62291;47.554;8.504;2022-07-21T06:20:58;26.50;99.90
73939;DHT22;62291;47.554;8.504;2022-07-21T06:23:23;26.20;99.10
73939;DHT22;62291;47.554;8.504;2022-07-21T06:25:51;25.90;99.90
73939;DHT22;62291;47.554;8.504;2022-07-21T06:28:18;25.60;99.90
73939;DHT22;62291;47.554;8.504;2022-07-21T06:30:44;25.10;99.90
73939;DHT22;62291;47.554;8.504;2022-07-21T06:33:09;24.90;99.90
73939;DHT22;62291;47.554;8.504;2022-07-21T06:35:35;24.70;99.90
73939;DHT22;62291;47.554;8.504;2022-07-21T06:38:01;24.30;99.90
73939;DHT22;62291;47.554;8.504;2022-07-21T06:40:27;23.90;99.90
73939;DHT22;62291;47.554;8.504;2022-07-21T06:42:53;23.70;99.90
73939;DHT22;62291;47.554;8.504;2022-07-21T06:45:19;23.60;99.90
73939;DHT22;62291;47.554;8.504;2022-07-21T06:47:45;23.80;99.90
73939;DHT22;62291;47.554;8.504;2022-07-21T06:50:11;23.90;99.90
73939;DHT22;62291;47.554;8.504;2022-07-21T06:52:36;24.20;99.90
73939;DHT22;62291;47.554;8.504;2022-07-21T06:55:06;24.60;99.90
73939;DHT22;62291;47.554;8.504;2022-07-21T06:57:36;25.10;99.90
73939;DHT22;62291;47.554;8.504;2022-07-21T07:00:04;25.20;99.90
73939;DHT22;62291;47.554;8.504;2022-07-21T07:02:31;25.30;99.90
73939;DHT22;62291;47.554;8.504;2022-07-21T07:04:57;25.10;99.90
73939;DHT22;62291;47.554;8.504;2022-07-21T07:07:22;25.00;99.90
73939;DHT22;62291;47.554;8.504;2022-07-21T07:09:48;24.80;99.90
73939;DHT22;62291;47.554;8.504;2022-07-21T07:12:14;24.80;99.90
73939;DHT22;62291;47.554;8.504;2022-07-21T07:14:40;24.80;99.90
73939;DHT22;62291;47.554;8.504;2022-07-21T07:17:05;24.80;99.90
73939;DHT22;62291;47.554;8.504;2022-07-21T07:19:31;24.60;99.90
73939;DHT22;62291;47.554;8.504;2022-07-21T07:21:57;24.60;99.90
73939;DHT22;62291;47.554;8.504;2022-07-21T07:24:23;24.80;99.90
73939;DHT22;62291;47.554;8.504;2022-07-21T07:26:48;25.00;99.90
73939;DHT22;62291;47.554;8.504;2022-07-21T07:29:14;26.10;99.90
73939;DHT22;62291;47.554;8.504;2022-07-21T07:31:40;26.10;99.90
73939;DHT22;62291;47.554;8.504;2022-07-21T07:34:06;26.30;99.70
73939;DHT22;62291;47.554;8.504;2022-07-21T07:36:32;26.50;97.30
73939;DHT22;62291;47.554;8.504;2022-07-21T07:38:58;27.00;98.50
73939;DHT22;62291;47.554;8.504;2022-07-21T07:41:26;27.70;95.60
73939;DHT22;62291;47.554;8.504;2022-07-21T07:43:52;28.40;92.50
73939;DHT22;62291;47.554;8.504;2022-07-21T07:46:18;28.90;90.50
73939;DHT22;62291;47.554;8.504;2022-07-21T07:48:44;29.30;85.60
73939;DHT22;62291;47.554;8.504;2022-07-21T07:51:12;30.00;85.70
73939;DHT22;62291;47.554;8.504;2022-07-21T07:53:38;30.60;86.70
73939;DHT22;62291;47.554;8.504;2022-07-21T07:56:05;31.00;79.80
73939;DHT22;62291;47.554;8.504;2022-07-21T07:58:32;31.10;75.50
73939;DHT22;62291;47.554;8.504;2022-07-21T08:00:58;30.60;74.90
73939;DHT22;62291;47.554;8.504;2022-07-21T08:03:25;30.10;76.00
73939;DHT22;62291;47.554;8.504;2022-07-21T08:05:53;29.90;76.30
73939;DHT22;62291;47.554;8.504;2022-07-21T08:08:19;29.90;76.00
73939;DHT22;62291;47.554;8.504;2022-07-21T08:10:45;30.00;74.60
73939;DHT22;62291;47.554;8.504;2022-07-21T08:13:15;29.80;75.90
73939;DHT22;62291;47.554;8.504;2022-07-21T08:15:42;29.40;77.50
73939;DHT22;62291;47.554;8.504;2022-07-21T08:18:08;29.40;77.60
73939;DHT22;62291;47.554;8.504;2022-07-21T08:20:34;29.00;79.20
73939;DHT22;62291;47.554;8.504;2022-07-21T08:23:00;28.60;80.70
73939;DHT22;62291;47.554;8.504;2022-07-21T08:25:26;28.50;81.00
73939;DHT22;62291;47.554;8.504;2022-07-21T08:27:52;28.30;82.00
73939;DHT22;62291;47.554;8.504;2022-07-21T08:30:17;28.30;83.10
73939;DHT22;62291;47.554;8.504;2022-07-21T08:32:43;28.10;83.60
73939;DHT22;62291;47.554;8.504;2022-07-21T08:35:09;28.20;85.30
73939;DHT22;62291;47.554;8.504;2022-07-21T08:37:36;28.10;82.60
73939;DHT22;62291;47.554;8.504;2022-07-21T08:40:07;28.30;83.40
73939;DHT22;62291;47.554;8.504;2022-07-21T08:42:33;28.30;82.10
73939;DHT22;62291;47.554;8.504;2022-07-21T08:44:59;28.20;80.00
73939;DHT22;62291;47.554;8.504;2022-07-21T08:47:25;28.10;83.20
73939;DHT22;62291;47.554;8.504;2022-07-21T08:49:51;27.90;80.00
73939;DHT22;62291;47.554;8.504;2022-07-21T08:52:18;28.00;80.20
73939;DHT22;62291;47.554;8.504;2022-07-21T08:54:44;28.40;80.30
73939;DHT22;62291;47.554;8.504;2022-07-21T08:57:10;28.90;79.80
73939;DHT22;62291;47.554;8.504;2022-07-21T08:59:36;29.20;77.40
73939;DHT22;62291;47.554;8.504;2022-07-21T09:02:02;29.80;75.60
73939;DHT22;62291;47.554;8.504;2022-07-21T09:04:31;30.20;73.20
73939;DHT22;62291;47.554;8.504;2022-07-21T09:07:00;30.50;73.00
73939;DHT22;62291;47.554;8.504;2022-07-21T09:09:28;30.20;70.50
73939;DHT22;62291;47.554;8.504;2022-07-21T09:11:55;30.90;69.30
73939;DHT22;62291;47.554;8.504;2022-07-21T09:14:23;31.70;67.70
73939;DHT22;62291;47.554;8.504;2022-07-21T09:16:55;32.10;65.50
73939;DHT22;62291;47.554;8.504;2022-07-21T09:19:33;32.30;63.50
73939;DHT22;62291;47.554;8.504;2022-07-21T09:22:03;31.90;60.60
73939;DHT22;62291;47.554;8.504;2022-07-21T09:24:33;31.60;64.70
73939;DHT22;62291;47.554;8.504;2022-07-21T09:32:26;32.00;64.30
73939;DHT22;62291;47.554;8.504;2022-07-21T09:35:02;31.90;63.20
73939;DHT22;62291;47.554;8.504;2022-07-21T09:37:28;32.10;61.60
73939;DHT22;62291;47.554;8.504;2022-07-21T09:39:56;32.10;63.50
73939;DHT22;62291;47.554;8.504;2022-07-21T09:42:30;31.80;62.00
73939;DHT22;62291;47.554;8.504;2022-07-21T09:45:04;31.30;63.20
73939;DHT22;62291;47.554;8.504;2022-07-21T09:47:32;30.80;62.60
73939;DHT22;62291;47.554;8.504;2022-07-21T09:49:58;30.40;68.90
73939;DHT22;62291;47.554;8.504;2022-07-21T09:54:53;30.50;67.10
73939;DHT22;62291;47.554;8.504;2022-07-21T09:57:20;30.90;65.50
73939;DHT22;62291;47.554;8.504;2022-07-21T09:59:47;30.90;63.80
73939;DHT22;62291;47.554;8.504;2022-07-21T10:04:42;31.30;65.00
73939;DHT22;62291;47.554;8.504;2022-07-21T10:07:08;31.80;62.60
73939;DHT22;62291;47.554;8.504;2022-07-21T10:09:34;32.30;62.40
73939;DHT22;62291;47.554;8.504;2022-07-21T10:12:01;32.60;62.00
73939;DHT22;62291;47.554;8.504;2022-07-21T10:14:27;33.10;59.80
73939;DHT22;62291;47.554;8.504;2022-07-21T10:16:53;32.90;59.80
73939;DHT22;62291;47.554;8.504;2022-07-21T10:19:23;33.40;57.70
73939;DHT22;62291;47.554;8.504;2022-07-21T10:25:08;34.40;56.70
73939;DHT22;62291;47.554;8.504;2022-07-21T10:27:34;34.70;57.70
73939;DHT22;62291;47.554;8.504;2022-07-21T10:30:02;34.90;56.00
73939;DHT22;62291;47.554;8.504;2022-07-21T10:32:34;34.70;53.50
73939;DHT22;62291;47.554;8.504;2022-07-21T10:37:47;34.20;53.80
73939;DHT22;62291;47.554;8.504;2022-07-21T10:45:42;32.30;57.30
73939;DHT22;62291;47.554;8.504;2022-07-21T10:51:11;30.90;59.10
73939;DHT22;62291;47.554;8.504;2022-07-21T10:53:37;31.30;60.20
73939;DHT22;62291;47.554;8.504;2022-07-21T10:56:05;31.70;57.10
73939;DHT22;62291;47.554;8.504;2022-07-21T10:58:44;32.20;57.70
73939;DHT22;62291;47.554;8.504;2022-07-21T11:01:19;32.30;56.80
73939;DHT22;62291;47.554;8.504;2022-07-21T11:03:46;31.90;57.00
73939;DHT22;62291;47.554;8.504;2022-07-21T11:06:32;32.30;57.10
73939;DHT22;62291;47.554;8.504;2022-07-21T11:11:31;31.80;56.30
73939;DHT22;62291;47.554;8.504;2022-07-21T11:19:47;31.40;57.20
73939;DHT22;62291;47.554;8.504;2022-07-21T11:22:23;31.40;55.90
73939;DHT22;62291;47.554;8.504;2022-07-21T11:25:04;31.90;57.60
73939;DHT22;62291;47.554;8.504;2022-07-21T11:27:36;32.10;57.90
73939;DHT22;62291;47.554;8.504;2022-07-21T11:30:07;32.20;56.30
73939;DHT22;62291;47.554;8.504;2022-07-21T11:32:33;32.10;57.20
73939;DHT22;62291;47.554;8.504;2022-07-21T11:35:02;32.20;54.40
73939;DHT22;62291;47.554;8.504;2022-07-21T11:37:34;32.30;54.70
73939;DHT22;62291;47.554;8.504;2022-07-21T11:40:01;31.70;55.20
73939;DHT22;62291;47.554;8.504;2022-07-21T11:42:27;30.70;55.20
73939;DHT22;62291;47.554;8.504;2022-07-21T11:44:53;30.10;58.80
73939;DHT22;62291;47.554;8.504;2022-07-21T11:47:19;30.30;59.20
73939;DHT22;62291;47.554;8.504;2022-07-21T11:49:53;30.70;58.20
73939;DHT22;62291;47.554;8.504;2022-07-21T11:52:23;31.00;56.20
73939;DHT22;62291;47.554;8.504;2022-07-21T11:54:52;31.00;55.50
73939;DHT22;62291;47.554;8.504;2022-07-21T11:57:20;31.00;57.10
73939;DHT22;62291;47.554;8.504;2022-07-21T11:59:47;31.20;54.70
73939;DHT22;62291;47.554;8.504;2022-07-21T12:02:14;31.10;55.60
73939;DHT22;62291;47.554;8.504;2022-07-21T12:04:43;31.10;57.40
73939;DHT22;62291;47.554;8.504;2022-07-21T12:07:24;31.40;56.40
73939;DHT22;62291;47.554;8.504;2022-07-21T12:09:56;31.10;55.80
73939;DHT22;62291;47.554;8.504;2022-07-21T12:12:34;31.20;56.80
73939;DHT22;62291;47.554;8.504;2022-07-21T12:15:32;31.50;57.60
73939;DHT22;62291;47.554;8.504;2022-07-21T12:20:39;31.70;52.70
73939;DHT22;62291;47.554;8.504;2022-07-21T12:23:26;31.80;54.30
73939;DHT22;62291;47.554;8.504;2022-07-21T12:25:53;31.20;52.80
73939;DHT22;62291;47.554;8.504;2022-07-21T12:28:19;31.10;54.90
73939;DHT22;62291;47.554;8.504;2022-07-21T12:30:48;31.40;55.50
73939;DHT22;62291;47.554;8.504;2022-07-21T12:33:27;31.40;55.10
73939;DHT22;62291;47.554;8.504;2022-07-21T12:38:39;31.70;54.20
73939;DHT22;62291;47.554;8.504;2022-07-21T12:41:06;31.50;51.80
73939;DHT22;62291;47.554;8.504;2022-07-21T12:43:32;31.50;54.90
73939;DHT22;62291;47.554;8.504;2022-07-21T12:45:59;31.50;52.40
73939;DHT22;62291;47.554;8.504;2022-07-21T12:48:33;31.60;53.90
73939;DHT22;62291;47.554;8.504;2022-07-21T12:53:50;31.30;52.50
73939;DHT22;62291;47.554;8.504;2022-07-21T12:56:22;31.50;54.60
73939;DHT22;62291;47.554;8.504;2022-07-21T12:58:48;31.50;52.40
73939;DHT22;62291;47.554;8.504;2022-07-21T13:01:16;31.60;53.90
73939;DHT22;62291;47.554;8.504;2022-07-21T13:03:42;31.60;54.20
73939;DHT22;62291;47.554;8.504;2022-07-21T13:06:09;31.30;50.90
73939;DHT22;62291;47.554;8.504;2022-07-21T13:08:35;31.00;52.30
73939;DHT22;62291;47.554;8.504;2022-07-21T13:11:01;31.10;51.40
73939;DHT22;62291;47.554;8.504;2022-07-21T13:13:27;31.20;51.70
73939;DHT22;62291;47.554;8.504;2022-07-21T13:15:54;31.30;51.70
73939;DHT22;62291;47.554;8.504;2022-07-21T13:18:20;31.30;50.30
73939;DHT22;62291;47.554;8.504;2022-07-21T13:20:48;31.20;52.60
73939;DHT22;62291;47.554;8.504;2022-07-21T13:23:14;30.90;51.40
73939;DHT22;62291;47.554;8.504;2022-07-21T13:25:40;30.90;51.60
73939;DHT22;62291;47.554;8.504;2022-07-21T13:28:05;31.00;50.50
73939;DHT22;62291;47.554;8.504;2022-07-21T13:30:31;31.00;53.30
73939;DHT22;62291;47.554;8.504;2022-07-21T13:32:57;31.00;52.10
73939;DHT22;62291;47.554;8.504;2022-07-21T13:35:22;30.80;52.00
73939;DHT22;62291;47.554;8.504;2022-07-21T13:37:48;30.70;51.90
73939;DHT22;62291;47.554;8.504;2022-07-21T13:40:14;30.70;51.70
73939;DHT22;62291;47.554;8.504;2022-07-21T13:42:39;30.80;50.50
73939;DHT22;62291;47.554;8.504;2022-07-21T13:45:05;30.80;52.10
73939;DHT22;62291;47.554;8.504;2022-07-21T13:47:35;30.70;51.60
73939;DHT22;62291;47.554;8.504;2022-07-21T13:50:01;30.50;51.10
73939;DHT22;62291;47.554;8.504;2022-07-21T13:52:27;30.30;50.50
73939;DHT22;62291;47.554;8.504;2022-07-21T13:54:53;30.20;52.80
73939;DHT22;62291;47.554;8.504;2022-07-21T13:57:18;30.10;52.40
73939;DHT22;62291;47.554;8.504;2022-07-21T13:59:44;30.10;52.20
73939;DHT22;62291;47.554;8.504;2022-07-21T14:02:10;30.00;52.50
73939;DHT22;62291;47.554;8.504;2022-07-21T14:04:35;30.00;52.00
73939;DHT22;62291;47.554;8.504;2022-07-21T14:07:01;30.00;52.80
73939;DHT22;62291;47.554;8.504;2022-07-21T14:09:27;30.10;53.50
73939;DHT22;62291;47.554;8.504;2022-07-21T14:11:52;30.00;53.20
73939;DHT22;62291;47.554;8.504;2022-07-21T14:14:18;30.00;52.00
73939;DHT22;62291;47.554;8.504;2022-07-21T14:16:49;29.90;53.20
73939;DHT22;62291;47.554;8.504;2022-07-21T14:19:15;29.90;52.60
73939;DHT22;62291;47.554;8.504;2022-07-21T14:21:41;29.90;52.40
73939;DHT22;62291;47.554;8.504;2022-07-21T14:24:07;29.70;51.30
73939;DHT22;62291;47.554;8.504;2022-07-21T14:26:51;29.70;53.50
73939;DHT22;62291;47.554;8.504;2022-07-21T14:29:17;29.60;52.50
73939;DHT22;62291;47.554;8.504;2022-07-21T14:31:42;29.60;54.20
73939;DHT22;62291;47.554;8.504;2022-07-21T14:34:08;29.50;54.80
73939;DHT22;62291;47.554;8.504;2022-07-21T14:36:34;29.40;54.10
73939;DHT22;62291;47.554;8.504;2022-07-21T14:39:00;29.30;53.80
73939;DHT22;62291;47.554;8.504;2022-07-21T14:41:25;29.20;51.90
73939;DHT22;62291;47.554;8.504;2022-07-21T14:43:51;29.20;52.40
73939;DHT22;62291;47.554;8.504;2022-07-21T14:46:16;29.20;53.00
73939;DHT22;62291;47.554;8.504;2022-07-21T14:48:43;29.20;53.00
73939;DHT22;62291;47.554;8.504;2022-07-21T14:51:09;29.20;53.10
73939;DHT22;62291;47.554;8.504;2022-07-21T14:53:34;29.10;52.90
73939;DHT22;62291;47.554;8.504;2022-07-21T14:56:00;29.10;53.80
73939;DHT22;62291;47.554;8.504;2022-07-21T14:58:26;29.10;53.60
73939;DHT22;62291;47.554;8.504;2022-07-21T15:00:54;29.00;53.20
73939;DHT22;62291;47.554;8.504;2022-07-21T15:03:20;29.00;52.90
73939;DHT22;62291;47.554;8.504;2022-07-21T15:05:47;29.00;53.60
73939;DHT22;62291;47.554;8.504;2022-07-21T15:08:13;28.90;54.40
73939;DHT22;62291;47.554;8.504;2022-07-21T15:10:40;28.90;51.80
73939;DHT22;62291;47.554;8.504;2022-07-21T15:13:06;28.70;51.60
73939;DHT22;62291;47.554;8.504;2022-07-21T15:15:32;28.60;52.70
73939;DHT22;62291;47.554;8.504;2022-07-21T15:18:00;28.60;53.50
73939;DHT22;62291;47.554;8.504;2022-07-21T15:20:26;28.70;53.60
73939;DHT22;62291;47.554;8.504;2022-07-21T15:22:51;28.80;53.50
73939;DHT22;62291;47.554;8.504;2022-07-21T15:25:17;28.80;52.20
73939;DHT22;62291;47.554;8.504;2022-07-21T15:27:43;28.70;51.90
73939;DHT22;62291;47.554;8.504;2022-07-21T15:30:11;28.70;52.10
73939;DHT22;62291;47.554;8.504;2022-07-21T15:32:37;28.60;52.30
73939;DHT22;62291;47.554;8.504;2022-07-21T15:35:03;28.60;53.30
73939;DHT22;62291;47.554;8.504;2022-07-21T15:37:28;28.60;54.70
73939;DHT22;62291;47.554;8.504;2022-07-21T15:39:54;28.70;54.70
73939;DHT22;62291;47.554;8.504;2022-07-21T15:42:20;28.70;54.20
73939;DHT22;62291;47.554;8.504;2022-07-21T15:44:46;28.70;53.50
73939;DHT22;62291;47.554;8.504;2022-07-21T15:47:11;28.70;53.10
73939;DHT22;62291;47.554;8.504;2022-07-21T15:49:37;28.60;52.10
73939;DHT22;62291;47.554;8.504;2022-07-21T15:52:04;28.50;52.40
73939;DHT22;62291;47.554;8.504;2022-07-21T15:54:30;28.50;53.20
73939;DHT22;62291;47.554;8.504;2022-07-21T15:56:56;28.50;52.60
73939;DHT22;62291;47.554;8.504;2022-07-21T15:59:22;28.40;52.70
73939;DHT22;62291;47.554;8.504;2022-07-21T16:02:01;28.40;53.50
73939;DHT22;62291;47.554;8.504;2022-07-21T16:04:27;28.40;52.00
73939;DHT22;62291;47.554;8.504;2022-07-21T16:06:53;28.40;51.80
73939;DHT22;62291;47.554;8.504;2022-07-21T16:09:19;28.30;52.00
73939;DHT22;62291;47.554;8.504;2022-07-21T16:11:44;28.20;52.40